Time,TemperatureF,DewpointF,PressureIn,WindDirection,WindDirectionDegrees,WindSpeedMPH,WindSpeedGustMPH,Humidity,HourlyPrecipIn,Conditions,Clouds,dailyrainin,SolarRadiationWatts/m^2,SoftwareType,DateUTC
2013-02-08 00:05:00,30.3,27.7,29.90,East,92,5.0,9.0,90,0.00,,,0.00,0,Wunderground v.1.15,2013-02-08 05:05:00,
2013-02-08 00:10:00,30.3,27.7,29.90,NE,39,6.0,9.0,90,0.00,,,0.00,0,Wunderground v.1.15,2013-02-08 05:10:00,
2013-02-08 00:15:00,30.4,28.1,29.90,NE,40,5.0,5.0,91,0.00,,,0.00,0,Wunderground v.1.15,2013-02-08 05:15:00,
2013-02-08 00:20:00,30.4,28.1,29.89,SE,139,5.0,7.0,91,0.00,,,0.00,0,Wunderground v.1.15,2013-02-08 05:20:00,
2013-02-08 00:25:00,30.4,28.1,29.89,ESE,109,5.0,9.0,91,0.00,,,0.00,0,Wunderground v.1.15,2013-02-08 05:25:00,
2013-02-08 00:30:00,30.3,28.0,29.89,East,80,6.0,10.0,91,0.00,,,0.00,0,Wunderground v.1.15,2013-02-08 05:30:00,
2013-02-08 00:35:00,30.3,28.0,29.88,East,96,6.0,13.0,91,0.00,,,0.00,0,Wunderground v.1.15,2013-02-08 05:35:00,
2013-02-08 00:45:00,30.3,28.3,29.87,ENE,70,6.0,13.0,92,0.00,,,0.00,0,Wunderground v.1.15,2013-02-08 05:45:00,
2013-02-08 00:50:00,30.2,28.2,29.87,East,90,6.0,13.0,92,0.00,,,0.00,0,Wunderground v.1.15,2013-02-08 05:50:00,
2013-02-08 00:55:00,30.1,28.1,29.86,ESE,104,5.0,5.0,92,0.00,,,0.00,0,Wunderground v.1.15,2013-02-08 05:55:00,
2013-02-08 01:05:00,30.1,28.3,29.86,ESE,106,6.0,8.0,93,0.00,,,0.00,0,Wunderground v.1.15,2013-02-08 06:05:00,
2013-02-08 01:10:00,30.1,28.3,29.86,ENE,58,6.0,8.0,93,0.00,,,0.00,0,Wunderground v.1.15,2013-02-08 06:10:00,
2013-02-08 01:15:00,30.1,28.3,29.86,NE,36,6.0,6.0,93,0.00,,,0.00,0,Wunderground v.1.15,2013-02-08 06:15:00,
2013-02-08 01:20:00,30.2,28.4,29.86,ENE,61,5.0,6.0,93,0.00,,,0.00,0,Wunderground v.1.15,2013-02-08 06:20:00,
2013-02-08 01:30:00,30.1,28.3,29.86,NE,41,4.0,14.0,93,0.00,,,0.00,0,Wunderground v.1.15,2013-02-08 06:30:00,
2013-02-08 01:35:00,30.1,28.6,29.85,SE,126,4.0,14.0,94,0.00,,,0.00,0,Wunderground v.1.15,2013-02-08 06:35:00,
2013-02-08 01:40:00,30.1,28.3,29.85,ENE,62,4.0,14.0,93,0.00,,,0.00,0,Wunderground v.1.15,2013-02-08 06:40:00,
2013-02-08 01:50:00,30.0,28.5,29.85,ENE,78,3.0,14.0,94,0.00,,,0.00,0,Wunderground v.1.15,2013-02-08 06:50:00,
2013-02-08 01:55:00,29.9,28.4,29.84,NE,37,2.0,4.0,94,0.00,,,0.00,0,Wunderground v.1.15,2013-02-08 06:55:00,
2013-02-08 02:05:00,30.0,28.5,29.84,ENE,68,2.0,2.0,94,0.00,,,0.00,0,Wunderground v.1.15,2013-02-08 07:05:00,
2013-02-08 02:15:00,30.0,28.5,29.84,East,87,3.0,4.0,94,0.00,,,0.00,0,Wunderground v.1.15,2013-02-08 07:15:00,
2013-02-08 02:25:00,29.9,28.4,29.84,ESE,103,2.0,6.0,94,0.00,,,0.00,0,Wunderground v.1.15,2013-02-08 07:25:00,
2013-02-08 02:30:00,30.0,28.5,29.84,NE,53,3.0,14.0,94,0.00,,,0.00,0,Wunderground v.1.15,2013-02-08 07:30:00,
2013-02-08 02:35:00,29.9,28.4,29.84,NE,46,3.0,14.0,94,0.00,,,0.00,0,Wunderground v.1.15,2013-02-08 07:35:00,
2013-02-08 02:45:00,29.9,28.4,29.84,NE,39,3.0,3.0,94,0.00,,,0.00,0,Wunderground v.1.15,2013-02-08 07:45:00,
2013-02-08 02:50:00,29.9,28.6,29.84,East,80,2.0,4.0,95,0.00,,,0.00,0,Wunderground v.1.15,2013-02-08 07:50:00,
2013-02-08 02:55:00,29.9,28.6,29.84,NE,40,2.0,2.0,95,0.00,,,0.00,0,Wunderground v.1.15,2013-02-08 07:55:00,
2013-02-08 03:05:00,29.8,28.5,29.84,NE,44,1.0,2.0,95,0.00,,,0.00,0,Wunderground v.1.15,2013-02-08 08:05:00,
2013-02-08 03:15:00,29.8,28.5,29.84,NE,53,2.0,2.0,95,0.00,,,0.00,0,Wunderground v.1.15,2013-02-08 08:15:00,
2013-02-08 03:20:00,29.7,28.4,29.84,ENE,58,2.0,2.0,95,0.00,,,0.00,0,Wunderground v.1.15,2013-02-08 08:20:00,
2013-02-08 03:30:00,29.7,28.4,29.83,North,5,2.0,3.0,95,0.00,,,0.00,0,Wunderground v.1.15,2013-02-08 08:30:00,
2013-02-08 03:35:00,29.7,28.4,29.83,NNE,19,2.0,10.0,95,0.00,,,0.00,0,Wunderground v.1.15,2013-02-08 08:35:00,
2013-02-08 03:44:00,29.6,28.3,29.83,NE,46,2.0,2.0,95,0.00,,,0.00,0,Wunderground v.1.15,2013-02-08 08:44:00,
2013-02-08 03:50:00,29.6,28.3,29.83,North,360,2.0,10.0,95,0.00,,,0.00,0,Wunderground v.1.15,2013-02-08 08:50:00,
2013-02-08 03:55:00,29.7,28.4,29.83,North,355,3.0,4.0,95,0.00,,,0.00,0,Wunderground v.1.15,2013-02-08 08:55:00,
2013-02-08 04:05:00,29.7,28.4,29.83,NNW,348,3.0,4.0,95,0.00,,,0.00,0,Wunderground v.1.15,2013-02-08 09:05:00,
2013-02-08 04:15:00,29.6,28.3,29.82,NNW,339,4.0,6.0,95,0.00,,,0.00,0,Wunderground v.1.15,2013-02-08 09:15:00,
2013-02-08 04:20:00,29.6,28.3,29.83,North,355,5.0,6.0,95,0.00,,,0.00,0,Wunderground v.1.15,2013-02-08 09:20:00,
2013-02-08 04:25:00,29.6,28.3,29.83,North,350,4.0,4.0,95,0.00,,,0.00,0,Wunderground v.1.15,2013-02-08 09:25:00,
2013-02-08 04:30:00,29.6,28.3,29.83,North,360,4.0,5.0,95,0.00,,,0.00,0,Wunderground v.1.15,2013-02-08 09:30:00,
2013-02-08 04:35:00,29.6,28.3,29.83,North,355,4.0,7.0,95,0.00,,,0.00,0,Wunderground v.1.15,2013-02-08 09:35:00,
2013-02-08 04:40:00,29.6,28.3,29.83,NNW,332,4.0,7.0,95,0.00,,,0.00,0,Wunderground v.1.15,2013-02-08 09:40:00,
2013-02-08 04:49:00,29.6,28.3,29.84,NNW,346,4.0,7.0,95,0.00,,,0.00,0,Wunderground v.1.15,2013-02-08 09:49:00,
2013-02-08 04:55:00,29.5,28.2,29.84,North,355,5.0,6.0,95,0.00,,,0.00,0,Wunderground v.1.15,2013-02-08 09:55:00,
2013-02-08 05:05:00,29.5,28.2,29.84,North,350,4.0,6.0,95,0.00,,,0.00,0,Wunderground v.1.15,2013-02-08 10:05:00,
2013-02-08 05:10:00,29.5,28.2,29.84,North,5,5.0,6.0,95,0.00,,,0.00,0,Wunderground v.1.15,2013-02-08 10:10:00,
2013-02-08 05:20:00,29.5,28.0,29.85,NNW,342,5.0,5.0,94,0.00,,,0.00,0,Wunderground v.1.15,2013-02-08 10:20:00,
2013-02-08 05:25:00,29.5,28.2,29.85,NNW,329,5.0,6.0,95,0.00,,,0.00,0,Wunderground v.1.15,2013-02-08 10:25:00,
2013-02-08 05:35:00,29.5,28.0,29.85,NW,316,5.0,9.0,94,0.00,,,0.00,0,Wunderground v.1.15,2013-02-08 10:35:00,
2013-02-08 05:44:00,29.6,28.1,29.86,NNW,348,6.0,9.0,94,0.00,,,0.00,0,Wunderground v.1.15,2013-02-08 10:44:00,
2013-02-08 05:50:00,29.6,28.1,29.86,NNW,333,6.0,9.0,94,0.00,,,0.00,0,Wunderground v.1.15,2013-02-08 10:50:00,
2013-02-08 05:55:00,29.6,28.1,29.86,North,360,6.0,6.0,94,0.00,,,0.00,0,Wunderground v.1.15,2013-02-08 10:55:00,
2013-02-08 06:05:00,29.4,27.9,29.85,North,360,7.0,9.0,94,0.00,,,0.00,0,Wunderground v.1.15,2013-02-08 11:05:00,
2013-02-08 06:10:00,29.3,27.8,29.86,NW,321,7.0,9.0,94,0.00,,,0.00,0,Wunderground v.1.15,2013-02-08 11:10:00,
2013-02-08 06:20:00,29.3,27.8,29.86,NNW,332,7.0,7.0,94,0.00,,,0.00,0,Wunderground v.1.15,2013-02-08 11:20:00,
2013-02-08 06:25:00,29.4,27.9,29.86,NNW,342,7.0,7.0,94,0.00,,,0.00,0,Wunderground v.1.15,2013-02-08 11:25:00,
2013-02-08 06:30:00,29.4,27.9,29.86,North,360,6.0,8.0,94,0.00,,,0.00,0,Wunderground v.1.15,2013-02-08 11:30:00,
2013-02-08 06:35:00,29.5,28.0,29.87,North,355,6.0,11.0,94,0.00,,,0.00,0,Wunderground v.1.15,2013-02-08 11:35:00,
2013-02-08 06:40:00,29.6,28.1,29.87,North,355,8.0,11.0,94,0.00,,,0.00,0,Wunderground v.1.15,2013-02-08 11:40:00,
2013-02-08 06:45:00,29.7,28.2,29.87,NNW,347,9.0,9.0,94,0.00,,,0.00,0,Wunderground v.1.15,2013-02-08 11:45:00,
2013-02-08 06:55:00,30.0,28.5,29.88,North,360,8.0,8.0,94,0.00,,,0.00,0,Wunderground v.1.15,2013-02-08 11:55:00,
2013-02-08 07:05:00,30.2,28.7,29.88,NNW,330,7.0,10.0,94,0.00,,,0.00,0,Wunderground v.1.15,2013-02-08 12:05:00,
2013-02-08 07:10:00,30.3,28.8,29.90,NNW,333,6.0,10.0,94,0.00,,,0.00,0,Wunderground v.1.15,2013-02-08 12:10:00,
2013-02-08 07:15:00,30.2,28.7,29.90,North,360,7.0,7.0,94,0.00,,,0.00,0,Wunderground v.1.15,2013-02-08 12:15:00,
2013-02-08 07:20:00,30.2,28.7,29.90,North,11,7.0,12.0,94,0.00,,,0.00,0,Wunderground v.1.15,2013-02-08 12:20:00,
2013-02-08 07:30:00,30.0,28.2,29.91,NNW,334,9.0,13.0,93,0.00,,,0.00,0,Wunderground v.1.15,2013-02-08 12:30:00,
2013-02-08 07:35:00,29.9,28.1,29.91,North,11,10.0,10.0,93,0.00,,,0.00,0,Wunderground v.1.15,2013-02-08 12:35:00,
2013-02-08 07:40:00,29.8,28.0,29.91,NNW,334,10.0,13.0,93,0.00,,,0.00,0,Wunderground v.1.15,2013-02-08 12:40:00,
2013-02-08 07:45:00,29.7,27.9,29.91,North,355,10.0,10.0,93,0.00,,,0.00,0,Wunderground v.1.15,2013-02-08 12:45:00,
2013-02-08 07:55:00,29.5,27.7,29.92,North,10,10.0,11.0,93,0.00,,,0.00,5,Wunderground v.1.15,2013-02-08 12:55:00,
2013-02-08 08:05:00,29.2,27.7,29.93,North,355,10.0,13.0,94,0.00,,,0.00,9,Wunderground v.1.15,2013-02-08 13:05:00,
2013-02-08 08:15:00,29.0,27.5,29.93,North,355,9.0,9.0,94,0.00,,,0.00,19,Wunderground v.1.15,2013-02-08 13:15:00,
2013-02-08 08:20:00,28.9,27.1,29.94,NNW,342,9.0,10.0,93,0.00,,,0.00,25,Wunderground v.1.15,2013-02-08 13:20:00,
2013-02-08 08:25:00,28.8,27.0,29.94,North,10,9.0,9.0,93,0.00,,,0.00,30,Wunderground v.1.15,2013-02-08 13:25:00,
2013-02-08 08:30:00,28.8,27.0,29.95,North,349,9.0,10.0,93,0.00,,,0.00,33,Wunderground v.1.15,2013-02-08 13:30:00,
2013-02-08 08:40:00,28.8,27.0,29.95,NNE,17,10.0,11.0,93,0.00,,,0.00,40,Wunderground v.1.15,2013-02-08 13:40:00,
2013-02-08 08:45:00,28.7,26.9,29.95,North,355,12.0,19.0,93,0.00,,,0.00,37,Wunderground v.1.15,2013-02-08 13:45:00,
2013-02-08 08:55:00,28.6,26.6,29.96,North,350,11.0,11.0,92,0.00,,,0.00,46,Wunderground v.1.15,2013-02-08 13:55:00,
2013-02-08 09:05:00,28.5,26.5,29.97,NNW,348,11.0,11.0,92,0.00,,,0.00,93,Wunderground v.1.15,2013-02-08 14:05:00,
2013-02-08 09:10:00,28.5,26.5,29.98,North,11,11.0,13.0,92,0.00,,,0.00,114,Wunderground v.1.15,2013-02-08 14:10:00,
2013-02-08 09:15:00,28.6,26.6,29.97,North,5,12.0,12.0,92,0.00,,,0.00,130,Wunderground v.1.15,2013-02-08 14:15:00,
2013-02-08 09:20:00,28.7,26.4,29.98,North,5,13.0,16.0,91,0.00,,,0.00,137,Wunderground v.1.15,2013-02-08 14:20:00,
2013-02-08 09:30:00,28.9,26.6,29.98,NNE,24,10.0,21.0,91,0.00,,,0.00,181,Wunderground v.1.15,2013-02-08 14:30:00,
2013-02-08 09:35:00,28.9,26.1,29.99,NW,321,11.0,11.0,89,0.00,,,0.00,120,Wunderground v.1.15,2013-02-08 14:35:00,
2013-02-08 09:40:00,28.8,26.0,29.99,North,5,13.0,18.0,89,0.00,,,0.00,149,Wunderground v.1.15,2013-02-08 14:40:00,
2013-02-08 09:45:00,28.8,25.7,29.99,North,349,15.0,21.0,88,0.00,,,0.00,156,Wunderground v.1.15,2013-02-08 14:45:00,
2013-02-08 09:55:00,29.5,26.4,30.00,North,5,10.0,13.0,88,0.00,,,0.00,374,Wunderground v.1.15,2013-02-08 14:55:00,
2013-02-08 10:05:00,28.8,25.7,30.01,NNW,348,10.0,10.0,88,0.00,,,0.00,165,Wunderground v.1.15,2013-02-08 15:05:00,
2013-02-08 10:10:00,28.7,25.6,30.01,NNW,327,10.0,10.0,88,0.00,,,0.00,167,Wunderground v.1.15,2013-02-08 15:10:00,
2013-02-08 10:15:00,28.4,25.3,30.02,North,355,9.0,14.0,88,0.00,,,0.00,167,Wunderground v.1.15,2013-02-08 15:15:00,
2013-02-08 10:20:00,28.1,24.7,30.02,NNW,348,11.0,14.0,87,0.00,,,0.00,148,Wunderground v.1.15,2013-02-08 15:20:00,
2013-02-08 10:30:00,27.7,24.3,30.03,North,349,11.0,17.0,87,0.00,,,0.00,239,Wunderground v.1.15,2013-02-08 15:30:00,
2013-02-08 10:35:00,27.6,24.2,30.03,NW,312,12.0,24.0,87,0.00,,,0.00,237,Wunderground v.1.15,2013-02-08 15:35:00,
2013-02-08 10:40:00,27.6,24.0,30.04,NNW,346,12.0,24.0,86,0.00,,,0.00,294,Wunderground v.1.15,2013-02-08 15:40:00,
2013-02-08 10:45:00,27.6,24.0,30.04,NNW,347,12.0,12.0,86,0.00,,,0.00,267,Wunderground v.1.15,2013-02-08 15:45:00,
2013-02-08 10:50:00,27.4,23.5,30.05,NNE,29,12.0,13.0,85,0.00,,,0.00,227,Wunderground v.1.15,2013-02-08 15:50:00,
2013-02-08 10:55:00,27.3,23.4,30.06,North,9,12.0,12.0,85,0.00,,,0.00,211,Wunderground v.1.15,2013-02-08 15:55:00,
2013-02-08 11:05:00,26.9,23.0,30.07,NNW,342,13.0,13.0,85,0.00,,,0.00,200,Wunderground v.1.15,2013-02-08 16:05:00,
2013-02-08 11:15:00,26.7,22.5,30.08,NNW,327,12.0,12.0,84,0.00,,,0.00,220,Wunderground v.1.15,2013-02-08 16:15:00,
2013-02-08 11:25:00,26.5,22.3,30.08,North,5,12.0,15.0,84,0.00,,,0.00,246,Wunderground v.1.15,2013-02-08 16:25:00,
2013-02-08 11:35:00,26.3,22.1,30.08,North,5,13.0,22.0,84,0.00,,,0.00,241,Wunderground v.1.15,2013-02-08 16:35:00,
2013-02-08 11:40:00,26.2,22.0,30.08,NNW,340,13.0,22.0,84,0.00,,,0.00,262,Wunderground v.1.15,2013-02-08 16:40:00,
2013-02-08 11:45:00,26.1,21.9,30.09,NNE,17,13.0,22.0,84,0.00,,,0.00,269,Wunderground v.1.15,2013-02-08 16:45:00,
2013-02-08 11:50:00,26.2,22.0,30.09,North,355,13.0,22.0,84,0.00,,,0.00,244,Wunderground v.1.15,2013-02-08 16:50:00,
2013-02-08 11:55:00,26.3,21.8,30.09,North,355,12.0,15.0,83,0.00,,,0.00,253,Wunderground v.1.15,2013-02-08 16:55:00,
2013-02-08 12:05:00,26.1,21.6,30.10,NW,312,13.0,13.0,83,0.00,,,0.00,269,Wunderground v.1.15,2013-02-08 17:05:00,
2013-02-08 12:10:00,26.2,21.7,30.10,North,360,14.0,14.0,83,0.00,,,0.00,276,Wunderground v.1.15,2013-02-08 17:10:00,
2013-02-08 12:19:00,26.2,21.5,30.11,NNW,329,12.0,14.0,82,0.00,,,0.00,253,Wunderground v.1.15,2013-02-08 17:19:00,
2013-02-08 12:24:00,26.2,21.5,30.11,North,360,12.0,13.0,82,0.00,,,0.00,248,Wunderground v.1.15,2013-02-08 17:24:00,
2013-02-08 12:30:00,26.3,21.6,30.11,NW,315,12.0,24.0,82,0.00,,,0.00,241,Wunderground v.1.15,2013-02-08 17:30:00,
2013-02-08 12:40:00,26.5,21.7,30.12,NW,318,9.0,24.0,82,0.00,,,0.00,232,Wunderground v.1.15,2013-02-08 17:40:00,
2013-02-08 12:45:00,26.3,21.6,30.12,NNW,336,9.0,24.0,82,0.00,,,0.00,209,Wunderground v.1.15,2013-02-08 17:45:00,
2013-02-08 12:50:00,26.0,21.3,30.12,North,355,10.0,24.0,82,0.00,,,0.00,221,Wunderground v.1.15,2013-02-08 17:50:00,
2013-02-08 12:55:00,25.8,21.1,30.13,NW,322,11.0,11.0,82,0.00,,,0.00,221,Wunderground v.1.15,2013-02-08 17:55:00,
2013-02-08 13:05:00,25.7,21.0,30.14,NNW,331,10.0,11.0,82,0.00,,,0.00,214,Wunderground v.1.15,2013-02-08 18:05:00,
2013-02-08 13:15:00,25.5,20.8,30.14,NW,314,11.0,11.0,82,0.00,,,0.00,213,Wunderground v.1.15,2013-02-08 18:15:00,
2013-02-08 13:20:00,25.5,20.8,30.14,NW,313,12.0,12.0,82,0.00,,,0.00,220,Wunderground v.1.15,2013-02-08 18:20:00,
2013-02-08 13:24:00,25.6,20.9,30.15,NW,311,11.0,13.0,82,0.00,,,0.00,220,Wunderground v.1.15,2013-02-08 18:24:00,
2013-02-08 13:30:00,25.6,20.9,30.14,North,5,10.0,25.0,82,0.00,,,0.00,236,Wunderground v.1.15,2013-02-08 18:30:00,
2013-02-08 13:35:00,25.7,21.0,30.14,North,360,10.0,10.0,82,0.00,,,0.00,232,Wunderground v.1.15,2013-02-08 18:35:00,
2013-02-08 13:45:00,25.7,21.0,30.15,NNW,334,10.0,25.0,82,0.00,,,0.00,207,Wunderground v.1.15,2013-02-08 18:45:00,
2013-02-08 13:50:00,25.7,21.0,30.15,NNW,345,11.0,25.0,82,0.00,,,0.00,232,Wunderground v.1.15,2013-02-08 18:50:00,
2013-02-08 13:55:00,25.8,21.1,30.15,NNW,327,11.0,12.0,82,0.00,,,0.00,220,Wunderground v.1.15,2013-02-08 18:55:00,
2013-02-08 14:05:00,25.8,21.1,30.16,NW,320,11.0,11.0,82,0.00,,,0.00,192,Wunderground v.1.15,2013-02-08 19:05:00,
2013-02-08 14:15:00,25.8,21.1,30.16,NW,320,12.0,14.0,82,0.00,,,0.00,188,Wunderground v.1.15,2013-02-08 19:15:00,
2013-02-08 14:20:00,25.9,21.2,30.17,NW,311,11.0,14.0,82,0.00,,,0.00,185,Wunderground v.1.15,2013-02-08 19:20:00,
2013-02-08 14:25:00,25.9,21.2,30.17,NW,317,10.0,10.0,82,0.00,,,0.00,167,Wunderground v.1.15,2013-02-08 19:25:00,
2013-02-08 14:30:00,26.0,21.3,30.17,North,355,10.0,13.0,82,0.00,,,0.00,185,Wunderground v.1.15,2013-02-08 19:30:00,
2013-02-08 14:35:00,25.8,21.1,30.17,North,5,10.0,20.0,82,0.00,,,0.00,192,Wunderground v.1.15,2013-02-08 19:35:00,
2013-02-08 14:45:00,25.9,21.2,30.17,NW,311,11.0,11.0,82,0.00,,,0.00,202,Wunderground v.1.15,2013-02-08 19:45:00,
2013-02-08 14:50:00,26.0,21.3,30.17,NW,304,11.0,20.0,82,0.00,,,0.00,209,Wunderground v.1.15,2013-02-08 19:50:00,
2013-02-08 14:55:00,26.0,21.3,30.17,North,355,11.0,11.0,82,0.00,,,0.00,220,Wunderground v.1.15,2013-02-08 19:55:00,
2013-02-08 15:05:00,26.2,21.2,30.17,North,5,10.0,13.0,81,0.00,,,0.00,218,Wunderground v.1.15,2013-02-08 20:05:00,
2013-02-08 15:10:00,26.4,21.4,30.17,NW,326,10.0,13.0,81,0.00,,,0.00,188,Wunderground v.1.15,2013-02-08 20:10:00,
2013-02-08 15:19:00,26.4,21.1,30.18,NNW,342,10.0,11.0,80,0.00,,,0.00,185,Wunderground v.1.15,2013-02-08 20:19:00,
2013-02-08 15:24:00,26.5,21.5,30.18,NNW,338,9.0,9.0,81,0.00,,,0.00,171,Wunderground v.1.15,2013-02-08 20:24:00,
2013-02-08 15:30:00,26.6,21.3,30.18,NW,318,8.0,10.0,80,0.00,,,0.00,165,Wunderground v.1.15,2013-02-08 20:30:00,
2013-02-08 15:35:00,26.7,21.4,30.18,NW,315,9.0,21.0,80,0.00,,,0.00,165,Wunderground v.1.15,2013-02-08 20:35:00,
2013-02-08 15:40:00,26.7,21.4,30.19,NNW,332,10.0,21.0,80,0.00,,,0.00,153,Wunderground v.1.15,2013-02-08 20:40:00,
2013-02-08 15:50:00,26.8,21.5,30.19,North,355,10.0,21.0,80,0.00,,,0.00,135,Wunderground v.1.15,2013-02-08 20:50:00,
2013-02-08 15:55:00,26.9,21.6,30.20,NNW,333,10.0,16.0,80,0.00,,,0.00,130,Wunderground v.1.15,2013-02-08 20:55:00,
2013-02-08 16:05:00,27.0,21.4,30.20,NW,312,11.0,11.0,79,0.00,,,0.00,125,Wunderground v.1.15,2013-02-08 21:05:00,
2013-02-08 16:10:00,27.0,21.4,30.20,NNE,21,11.0,11.0,79,0.00,,,0.00,160,Wunderground v.1.15,2013-02-08 21:10:00,
2013-02-08 16:20:00,27.0,21.1,30.21,North,360,11.0,12.0,78,0.00,,,0.00,116,Wunderground v.1.15,2013-02-08 21:20:00,
2013-02-08 16:25:00,27.0,21.1,30.21,NNW,346,10.0,10.0,78,0.00,,,0.00,137,Wunderground v.1.15,2013-02-08 21:25:00,
2013-02-08 16:35:00,27.2,21.2,30.22,NNW,348,7.0,7.0,78,0.00,,,0.00,190,Wunderground v.1.15,2013-02-08 21:35:00,
2013-02-08 16:40:00,27.2,21.2,30.22,NNW,341,8.0,8.0,78,0.00,,,0.00,107,Wunderground v.1.15,2013-02-08 21:40:00,
2013-02-08 16:45:00,27.3,21.3,30.22,North,5,7.0,21.0,78,0.00,,,0.00,95,Wunderground v.1.15,2013-02-08 21:45:00,
2013-02-08 16:55:00,27.3,21.0,30.23,NNW,346,7.0,7.0,77,0.00,,,0.00,74,Wunderground v.1.15,2013-02-08 21:55:00,
2013-02-08 17:04:00,27.5,20.9,30.24,North,355,6.0,6.0,76,0.00,,,0.00,62,Wunderground v.1.15,2013-02-08 22:04:00,
2013-02-08 17:10:00,27.6,21.0,30.24,North,355,6.0,6.0,76,0.00,,,0.00,58,Wunderground v.1.15,2013-02-08 22:10:00,
2013-02-08 17:20:00,27.8,20.9,30.25,NNW,346,6.0,6.0,75,0.00,,,0.00,54,Wunderground v.1.15,2013-02-08 22:20:00,
2013-02-08 17:30:00,28.1,20.9,30.25,North,350,7.0,21.0,74,0.00,,,0.00,44,Wunderground v.1.15,2013-02-08 22:30:00,
2013-02-08 17:35:00,28.0,20.5,30.25,North,349,8.0,8.0,73,0.00,,,0.00,32,Wunderground v.1.15,2013-02-08 22:35:00,
2013-02-08 17:40:00,28.0,20.5,30.26,North,350,8.0,21.0,73,0.00,,,0.00,23,Wunderground v.1.15,2013-02-08 22:40:00,
2013-02-08 17:50:00,27.7,19.8,30.26,NNW,346,6.0,21.0,72,0.00,,,0.00,11,Wunderground v.1.15,2013-02-08 22:50:00,
2013-02-08 17:55:00,27.6,19.8,30.27,NW,323,6.0,10.0,72,0.00,,,0.00,7,Wunderground v.1.15,2013-02-08 22:55:00,
2013-02-08 18:05:00,27.4,19.6,30.27,NNW,342,8.0,8.0,72,0.00,,,0.00,0,Wunderground v.1.15,2013-02-08 23:05:00,
2013-02-08 18:10:00,27.3,19.5,30.27,North,355,7.0,8.0,72,0.00,,,0.00,0,Wunderground v.1.15,2013-02-08 23:10:00,
2013-02-08 18:14:00,27.1,19.3,30.28,NNW,346,7.0,7.0,72,0.00,,,0.00,0,Wunderground v.1.15,2013-02-08 23:14:00,
2013-02-08 18:19:00,26.9,19.1,30.28,NNW,337,7.0,7.0,72,0.00,,,0.00,0,Wunderground v.1.15,2013-02-08 23:19:00,
2013-02-08 18:25:00,26.9,19.1,30.28,North,360,6.0,9.0,72,0.00,,,0.00,0,Wunderground v.1.15,2013-02-08 23:25:00,
2013-02-08 18:35:00,26.6,18.8,30.29,NNW,345,6.0,14.0,72,0.00,,,0.00,0,Wunderground v.1.15,2013-02-08 23:35:00,
2013-02-08 18:40:00,26.5,18.7,30.29,NW,321,6.0,14.0,72,0.00,,,0.00,0,Wunderground v.1.15,2013-02-08 23:40:00,
2013-02-08 18:45:00,26.3,18.5,30.29,NNW,330,6.0,6.0,72,0.00,,,0.00,0,Wunderground v.1.15,2013-02-08 23:45:00,
2013-02-08 18:50:00,26.3,18.8,30.30,NNW,347,5.0,14.0,73,0.00,,,0.00,0,Wunderground v.1.15,2013-02-08 23:50:00,
2013-02-08 18:55:00,26.1,18.6,30.30,North,360,5.0,8.0,73,0.00,,,0.00,0,Wunderground v.1.15,2013-02-08 23:55:00,
2013-02-08 19:05:00,25.8,18.7,30.30,North,5,5.0,5.0,74,0.00,,,0.00,0,Wunderground v.1.15,2013-02-09 00:05:00,
2013-02-08 19:10:00,25.5,18.4,30.30,NE,36,4.0,5.0,74,0.00,,,0.00,0,Wunderground v.1.15,2013-02-09 00:10:00,
2013-02-08 19:15:00,25.3,18.5,30.31,NNW,346,3.0,6.0,75,0.00,,,0.00,0,Wunderground v.1.15,2013-02-09 00:15:00,
2013-02-08 19:20:00,25.3,18.5,30.31,NNW,333,4.0,8.0,75,0.00,,,0.00,0,Wunderground v.1.15,2013-02-09 00:20:00,
2013-02-08 19:25:00,25.3,18.5,30.31,North,9,5.0,5.0,75,0.00,,,0.00,0,Wunderground v.1.15,2013-02-09 00:25:00,
2013-02-08 19:30:00,25.1,18.6,30.31,North,355,6.0,6.0,76,0.00,,,0.00,0,Wunderground v.1.15,2013-02-09 00:30:00,
2013-02-08 19:35:00,24.9,18.4,30.32,North,5,4.0,13.0,76,0.00,,,0.00,0,Wunderground v.1.15,2013-02-09 00:35:00,
2013-02-08 19:40:00,24.7,18.2,30.32,NNW,346,4.0,13.0,76,0.00,,,0.00,0,Wunderground v.1.15,2013-02-09 00:40:00,
2013-02-08 19:45:00,24.5,18.0,30.33,NW,322,5.0,5.0,76,0.00,,,0.00,0,Wunderground v.1.15,2013-02-09 00:45:00,
2013-02-08 19:50:00,24.3,17.8,30.33,NNW,348,4.0,13.0,76,0.00,,,0.00,0,Wunderground v.1.15,2013-02-09 00:50:00,
2013-02-08 19:55:00,24.1,17.9,30.33,NNW,348,2.0,2.0,77,0.00,,,0.00,0,Wunderground v.1.15,2013-02-09 00:55:00,
2013-02-08 20:05:00,23.8,17.6,30.34,NW,323,2.0,2.0,77,0.00,,,0.00,0,Wunderground v.1.15,2013-02-09 01:05:00,
2013-02-08 20:10:00,23.7,17.5,30.34,North,355,3.0,3.0,77,0.00,,,0.00,0,Wunderground v.1.15,2013-02-09 01:10:00,
2013-02-08 20:15:00,23.6,17.7,30.34,NNW,345,3.0,4.0,78,0.00,,,0.00,0,Wunderground v.1.15,2013-02-09 01:15:00,
2013-02-08 20:20:00,23.5,17.6,30.34,North,355,3.0,4.0,78,0.00,,,0.00,0,Wunderground v.1.15,2013-02-09 01:20:00,
2013-02-08 20:25:00,23.4,17.6,30.34,North,355,3.0,3.0,78,0.00,,,0.00,0,Wunderground v.1.15,2013-02-09 01:25:00,
2013-02-08 20:30:00,23.3,17.7,30.35,North,355,3.0,10.0,79,0.00,,,0.00,0,Wunderground v.1.15,2013-02-09 01:30:00,
2013-02-08 20:39:00,22.8,17.3,30.35,North,355,1.0,10.0,79,0.00,,,0.00,0,Wunderground v.1.15,2013-02-09 01:39:00,
2013-02-08 20:45:00,22.6,17.1,30.35,North,355,0.0,10.0,79,0.00,,,0.00,0,Wunderground v.1.15,2013-02-09 01:45:00,
2013-02-08 20:50:00,22.4,17.2,30.35,North,355,0.0,10.0,80,0.00,,,0.00,0,Wunderground v.1.15,2013-02-09 01:50:00,
2013-02-08 20:55:00,22.2,17.0,30.35,North,355,0.0,2.0,80,0.00,,,0.00,0,Wunderground v.1.15,2013-02-09 01:55:00,
2013-02-08 21:05:00,21.9,17.0,30.35,North,355,1.0,1.0,81,0.00,,,0.00,0,Wunderground v.1.15,2013-02-09 02:05:00,
2013-02-08 21:10:00,21.9,17.0,30.36,North,355,1.0,1.0,81,0.00,,,0.00,0,Wunderground v.1.15,2013-02-09 02:10:00,
2013-02-08 21:15:00,21.7,17.1,30.36,North,355,1.0,1.0,82,0.00,,,0.00,0,Wunderground v.1.15,2013-02-09 02:15:00,
2013-02-08 21:25:00,21.4,16.8,30.36,North,355,0.0,0.0,82,0.00,,,0.00,0,Wunderground v.1.15,2013-02-09 02:25:00,
2013-02-08 21:35:00,20.8,16.2,30.37,North,355,0.0,6.0,82,0.00,,,0.00,0,Wunderground v.1.15,2013-02-09 02:35:00,
2013-02-08 21:45:00,19.8,15.5,30.37,North,355,0.0,6.0,83,0.00,,,0.00,0,Wunderground v.1.15,2013-02-09 02:45:00,
2013-02-08 21:55:00,19.7,16.2,30.38,North,355,0.0,2.0,86,0.00,,,0.00,0,Wunderground v.1.15,2013-02-09 02:55:00,
2013-02-08 22:05:00,19.5,15.5,30.38,North,355,1.0,1.0,84,0.00,,,0.00,0,Wunderground v.1.15,2013-02-09 03:05:00,
2013-02-08 22:15:00,18.7,14.7,30.38,North,355,0.0,0.0,84,0.00,,,0.00,0,Wunderground v.1.15,2013-02-09 03:15:00,
2013-02-08 22:25:00,18.5,15.3,30.38,North,355,0.0,0.0,87,0.00,,,0.00,0,Wunderground v.1.15,2013-02-09 03:25:00,
2013-02-08 22:30:00,18.5,15.3,30.39,North,355,0.0,4.0,87,0.00,,,0.00,0,Wunderground v.1.15,2013-02-09 03:30:00,
2013-02-08 22:35:00,17.6,13.9,30.39,North,355,0.0,4.0,85,0.00,,,0.00,0,Wunderground v.1.15,2013-02-09 03:35:00,
2013-02-08 22:44:00,16.7,13.5,30.39,North,355,0.0,4.0,87,0.00,,,0.00,0,Wunderground v.1.15,2013-02-09 03:44:00,
2013-02-08 22:49:00,17.0,14.3,30.39,North,355,0.0,4.0,89,0.00,,,0.00,0,Wunderground v.1.15,2013-02-09 03:49:00,
2013-02-08 22:55:00,17.0,14.1,30.39,North,355,0.0,0.0,88,0.00,,,0.00,0,Wunderground v.1.15,2013-02-09 03:55:00,
2013-02-08 23:04:00,16.3,13.6,30.39,North,355,0.0,0.0,89,0.00,,,0.00,0,Wunderground v.1.15,2013-02-09 04:04:00,
2013-02-08 23:10:00,16.6,14.2,30.39,North,355,0.0,0.0,90,0.00,,,0.00,0,Wunderground v.1.15,2013-02-09 04:10:00,
2013-02-08 23:15:00,16.7,14.3,30.40,North,355,0.0,0.0,90,0.00,,,0.00,0,Wunderground v.1.15,2013-02-09 04:15:00,
2013-02-08 23:20:00,16.8,14.4,30.40,North,355,0.0,0.0,90,0.00,,,0.00,0,Wunderground v.1.15,2013-02-09 04:20:00,
2013-02-08 23:25:00,16.5,13.8,30.40,North,355,0.0,0.0,89,0.00,,,0.00,0,Wunderground v.1.15,2013-02-09 04:25:00,
2013-02-08 23:30:00,16.4,14.0,30.40,North,355,0.0,0.0,90,0.00,,,0.00,0,Wunderground v.1.15,2013-02-09 04:30:00,
2013-02-08 23:35:00,15.8,12.9,30.40,North,355,0.0,0.0,88,0.00,,,0.00,0,Wunderground v.1.15,2013-02-09 04:35:00,
2013-02-08 23:40:00,14.8,11.6,30.40,North,355,0.0,0.0,87,0.00,,,0.00,0,Wunderground v.1.15,2013-02-09 04:40:00,
2013-02-08 23:50:00,14.8,12.1,30.41,North,355,0.0,0.0,89,0.00,,,0.00,0,Wunderground v.1.15,2013-02-09 04:50:00,
2013-02-08 23:55:00,14.6,11.9,30.40,North,355,0.0,0.0,89,0.00,,,0.00,0,Wunderground v.1.15,2013-02-09 04:55:00,